createdAt,value
2018-08-23T00:01:32.955Z,19.87
2018-08-23T00:04:05.058Z,19.82
2018-08-23T00:06:34.137Z,19.78
2018-08-23T00:09:03.879Z,19.80
2018-08-23T00:11:34.698Z,19.82
2018-08-23T00:14:03.711Z,19.74
2018-08-23T00:16:38.056Z,19.68
2018-08-23T00:19:07.171Z,19.65
2018-08-23T00:21:42.431Z,19.61
2018-08-23T00:24:17.111Z,19.59
2018-08-23T00:26:48.939Z,19.59
2018-08-23T00:29:22.416Z,19.55
2018-08-23T00:31:51.646Z,19.50
2018-08-23T00:34:21.438Z,19.47
2018-08-23T00:36:50.763Z,19.50
2018-08-23T00:39:20.024Z,19.46
2018-08-23T00:41:54.410Z,19.46
2018-08-23T00:44:23.419Z,19.41
2018-08-23T00:46:54.031Z,19.47
2018-08-23T00:49:26.222Z,19.47
2018-08-23T00:51:55.228Z,19.40
2018-08-23T00:54:25.698Z,19.41
2018-08-23T00:56:54.718Z,19.34
2018-08-23T00:59:23.850Z,19.32
2018-08-23T01:02:08.295Z,19.24
2018-08-23T01:04:40.541Z,19.22
2018-08-23T01:07:09.561Z,19.14
2018-08-23T01:09:42.524Z,19.12
2018-08-23T01:12:12.172Z,19.12
2018-08-23T01:14:41.339Z,19.08
2018-08-23T01:17:16.432Z,19.06
2018-08-23T01:19:50.880Z,19.02
2018-08-23T01:22:20.000Z,19.02
2018-08-23T01:24:50.080Z,18.97
2018-08-23T01:27:25.251Z,18.98
2018-08-23T01:29:54.678Z,18.99
2018-08-23T01:32:29.139Z,18.99
2018-08-23T01:34:58.155Z,18.98
2018-08-23T01:37:34.756Z,18.97
2018-08-23T01:40:05.556Z,18.89
2018-08-23T01:42:35.872Z,18.83
2018-08-23T01:45:06.053Z,18.84
2018-08-23T01:47:39.842Z,18.82
2018-08-23T01:50:09.111Z,18.77
2018-08-23T01:52:43.544Z,18.73
2018-08-23T01:55:13.478Z,18.71
2018-08-23T01:57:43.411Z,18.69
2018-08-23T02:00:13.607Z,18.68
2018-08-23T02:02:42.642Z,18.64
2018-08-23T02:05:11.647Z,18.68
2018-08-23T02:07:40.678Z,18.65
2018-08-23T02:10:09.739Z,18.64
2018-08-23T02:12:38.768Z,18.61
2018-08-23T02:15:09.727Z,18.65
2018-08-23T02:17:44.531Z,18.67
2018-08-23T02:20:13.536Z,18.64
2018-08-23T02:22:42.583Z,18.59
2018-08-23T02:25:11.609Z,18.53
2018-08-23T02:28:12.476Z,18.55
2018-08-23T02:30:57.174Z,18.61
2018-08-23T02:33:26.827Z,18.64
2018-08-23T02:36:08.690Z,18.63
2018-08-23T02:38:38.431Z,18.63
2018-08-23T02:41:07.455Z,18.66
2018-08-23T02:43:36.479Z,18.63
2018-08-23T02:46:05.483Z,18.59
2018-08-23T02:48:34.580Z,18.60
2018-08-23T02:51:03.587Z,18.60
2018-08-23T02:53:35.023Z,18.57
2018-08-23T02:56:05.179Z,18.61
2018-08-23T02:58:37.496Z,18.65
2018-08-23T03:01:14.907Z,18.63
2018-08-23T03:03:59.707Z,18.57
2018-08-23T03:06:34.428Z,18.49
2018-08-23T03:09:03.816Z,18.45
2018-08-23T03:11:34.284Z,18.42
2018-08-23T03:14:05.076Z,18.44
2018-08-23T03:16:46.947Z,18.40
2018-08-23T03:19:16.076Z,18.39
2018-08-23T03:21:45.274Z,18.39
2018-08-23T03:24:18.756Z,18.41
2018-08-23T03:26:48.235Z,18.32
2018-08-23T03:29:17.261Z,18.32
2018-08-23T03:31:46.275Z,18.29
2018-08-23T03:34:15.571Z,18.29
2018-08-23T03:36:44.597Z,18.32
2018-08-23T03:39:13.618Z,18.29
2018-08-23T03:41:42.635Z,18.26
2018-08-23T03:44:22.967Z,18.28
2018-08-23T03:46:53.603Z,18.43
2018-08-23T03:49:31.083Z,18.45
2018-08-23T03:52:00.338Z,18.37
2018-08-23T03:54:30.536Z,18.39
2018-08-23T03:57:13.787Z,18.40
2018-08-23T03:59:46.908Z,18.43
2018-08-23T04:02:17.008Z,18.42
2018-08-23T04:04:47.477Z,18.42
2018-08-23T04:07:16.742Z,18.38
2018-08-23T04:09:45.852Z,18.36
2018-08-23T04:12:16.739Z,18.37
2018-08-23T04:14:45.769Z,18.38
2018-08-23T04:17:14.903Z,18.45
2018-08-23T04:19:49.767Z,18.49
2018-08-23T04:22:18.809Z,18.53
2018-08-23T04:24:52.819Z,18.46
2018-08-23T04:27:21.905Z,18.41
2018-08-23T04:29:50.903Z,18.29
2018-08-23T04:32:29.991Z,18.21
2018-08-23T04:35:01.111Z,18.19
2018-08-23T04:37:30.917Z,18.18
2018-08-23T04:40:03.156Z,18.12
2018-08-23T04:42:34.021Z,18.21
2018-08-23T04:45:09.135Z,18.28
2018-08-23T04:48:08.574Z,18.30
2018-08-23T04:50:38.736Z,18.30
2018-08-23T04:53:07.760Z,18.31
2018-08-23T04:55:36.771Z,18.36
2018-08-23T04:58:06.028Z,18.39
2018-08-23T05:00:35.048Z,18.53
2018-08-23T05:03:04.166Z,18.57
2018-08-23T05:05:33.171Z,18.51
2018-08-23T05:08:02.272Z,18.58
2018-08-23T05:10:31.299Z,18.64
2018-08-23T05:13:00.453Z,18.65
2018-08-23T05:15:29.483Z,18.72
2018-08-23T05:17:58.506Z,18.75
2018-08-23T05:20:27.524Z,18.77
2018-08-23T05:23:01.850Z,18.87
2018-08-23T05:25:30.785Z,18.94
2018-08-23T05:28:15.515Z,18.93
2018-08-23T05:30:45.519Z,18.97
2018-08-23T05:33:15.536Z,19.01
2018-08-23T05:35:44.718Z,19.01
2018-08-23T05:38:14.391Z,19.02
2018-08-23T05:40:49.624Z,19.07
2018-08-23T05:43:18.643Z,19.23
2018-08-23T05:45:48.859Z,19.55
2018-08-23T05:48:35.584Z,19.68
2018-08-23T05:51:12.666Z,19.78
2018-08-23T05:53:43.135Z,20.32
2018-08-23T05:56:12.175Z,20.47
2018-08-23T05:58:41.191Z,20.52
2018-08-23T06:01:10.203Z,20.56
2018-08-23T06:03:39.425Z,21.04
2018-08-23T06:06:08.835Z,21.14
2018-08-23T06:08:42.943Z,20.95
2018-08-23T06:11:12.431Z,20.64
2018-08-23T06:13:41.447Z,20.55
2018-08-23T06:16:10.464Z,20.56
2018-08-23T06:18:39.515Z,20.60
2018-08-23T06:21:08.511Z,20.66
2018-08-23T06:24:00.124Z,20.77
2018-08-23T06:26:32.284Z,21.00
2018-08-23T06:29:01.341Z,21.09
2018-08-23T06:31:30.339Z,21.24
2018-08-23T06:33:59.647Z,21.36
2018-08-23T06:36:29.925Z,21.60
2018-08-23T06:39:00.959Z,21.92
2018-08-23T06:41:30.197Z,22.11
2018-08-23T06:43:59.438Z,22.47
2018-08-23T06:46:28.452Z,22.59
2018-08-23T06:48:57.569Z,22.74
2018-08-23T06:51:26.503Z,22.83
2018-08-23T06:53:59.698Z,22.91
2018-08-23T06:56:28.785Z,23.02
2018-08-23T06:58:57.899Z,23.14
2018-08-23T07:01:37.753Z,23.39
2018-08-23T07:04:08.497Z,23.40
2018-08-23T07:06:37.604Z,23.55
2018-08-23T07:09:09.367Z,23.65
2018-08-23T07:11:38.441Z,23.82
2018-08-23T07:14:12.584Z,23.81
2018-08-23T07:16:42.942Z,23.87
2018-08-23T07:19:29.096Z,23.90
2018-08-23T07:22:00.541Z,24.06
2018-08-23T07:24:44.363Z,24.22
2018-08-23T07:27:14.504Z,24.26
2018-08-23T07:29:46.860Z,24.34
2018-08-23T07:32:17.864Z,24.62
2018-08-23T07:35:01.837Z,24.79
2018-08-23T07:40:10.299Z,25.07
2018-08-23T07:42:40.328Z,25.27
2018-08-23T07:45:09.765Z,25.37
2018-08-23T07:47:41.399Z,25.51
2018-08-23T07:50:10.500Z,25.62
2018-08-23T07:52:42.078Z,25.65
2018-08-23T07:55:11.149Z,25.75
2018-08-23T07:57:40.581Z,25.91
2018-08-23T08:00:29.628Z,25.99
2018-08-23T08:02:58.791Z,25.90
2018-08-23T08:05:33.724Z,25.92
2018-08-23T08:08:03.024Z,25.89
2018-08-23T08:10:36.904Z,25.97
2018-08-23T08:13:06.008Z,25.99
2018-08-23T08:15:35.034Z,26.12
2018-08-23T08:18:16.817Z,26.18
2018-08-23T08:20:51.528Z,26.21
2018-08-23T08:23:20.507Z,26.16
2018-08-23T08:25:49.529Z,26.07
2018-08-23T08:28:19.067Z,25.92
2018-08-23T08:30:48.678Z,25.86
2018-08-23T08:33:20.895Z,25.81
2018-08-23T08:35:50.779Z,25.77
2018-08-23T08:38:19.883Z,25.78
2018-08-23T08:40:51.296Z,25.85
2018-08-23T08:43:20.325Z,26.21
2018-08-23T08:45:53.600Z,26.73
2018-08-23T08:48:29.782Z,27.03
2018-08-23T08:51:15.703Z,26.89
2018-08-23T08:53:45.132Z,26.77
2018-08-23T08:56:14.142Z,26.82
2018-08-23T08:58:43.576Z,27.20
2018-08-23T09:01:12.595Z,26.87
2018-08-23T09:03:41.671Z,26.93
2018-08-23T09:06:11.427Z,26.82
2018-08-23T09:08:40.538Z,27.01
2018-08-23T09:11:09.560Z,27.14
2018-08-23T09:13:43.803Z,27.18
2018-08-23T09:16:12.815Z,27.02
2018-08-23T09:18:42.894Z,27.32
2018-08-23T09:21:11.848Z,27.66
2018-08-23T09:23:41.153Z,27.59
2018-08-23T09:26:10.187Z,27.56
2018-08-23T09:28:39.231Z,27.38
2018-08-23T09:31:08.282Z,27.38
2018-08-23T09:33:37.390Z,27.54
2018-08-23T09:36:06.592Z,27.58
2018-08-23T09:38:35.617Z,27.79
2018-08-23T09:41:04.656Z,28.03
2018-08-23T09:43:33.787Z,28.16
2018-08-23T09:46:03.150Z,28.31
2018-08-23T09:48:32.158Z,28.35
2018-08-23T09:51:01.421Z,28.37
2018-08-23T09:53:30.407Z,28.74
2018-08-23T09:55:59.435Z,28.76
2018-08-23T09:58:33.812Z,28.89
2018-08-23T10:01:08.237Z,28.93
2018-08-23T10:03:42.588Z,29.15
2018-08-23T10:07:16.915Z,29.05
2018-08-23T10:10:49.468Z,29.60
2018-08-23T10:13:23.988Z,29.43
2018-08-23T10:15:58.383Z,29.56
2018-08-23T10:18:32.744Z,29.81
2018-08-23T10:21:02.951Z,30.18
2018-08-23T10:23:31.992Z,30.30
2018-08-23T10:26:06.445Z,30.10
2018-08-23T10:28:40.947Z,30.15
2018-08-23T10:31:11.598Z,29.87
2018-08-23T10:33:40.643Z,29.78
2018-08-23T10:36:09.687Z,30.09
2018-08-23T10:38:38.703Z,30.35
2018-08-23T10:41:08.295Z,30.58
2018-08-23T10:43:44.275Z,30.14
2018-08-23T10:46:13.308Z,29.78
2018-08-23T10:48:42.355Z,29.93
2018-08-23T10:51:13.274Z,30.15
2018-08-23T10:53:42.207Z,31.31
2018-08-23T10:56:11.357Z,31.57
2018-08-23T10:58:40.323Z,31.27
2018-08-23T11:01:09.389Z,30.89
2018-08-23T11:03:38.384Z,30.81
2018-08-23T11:06:07.409Z,30.84
2018-08-23T11:08:37.826Z,30.85
2018-08-23T11:11:13.448Z,31.07
2018-08-23T11:13:47.632Z,31.00
2018-08-23T11:16:22.133Z,30.97
2018-08-23T11:18:56.722Z,30.88
2018-08-23T11:21:27.259Z,31.23
2018-08-23T11:23:56.270Z,31.56
2018-08-23T11:26:28.882Z,31.56
2018-08-23T11:28:57.961Z,31.53
2018-08-23T11:31:30.983Z,31.61
2018-08-23T11:34:00.140Z,31.49
2018-08-23T11:36:29.233Z,32.03
2018-08-23T11:38:58.251Z,31.87
2018-08-23T11:41:28.811Z,31.78
2018-08-23T11:46:33.067Z,32.84
2018-08-23T11:49:02.163Z,32.85
2018-08-23T11:51:31.239Z,32.95
2018-08-23T11:54:00.286Z,32.94
2018-08-23T11:56:30.343Z,33.13
2018-08-23T11:58:59.371Z,33.30
2018-08-23T12:01:28.361Z,32.92
2018-08-23T12:03:57.443Z,32.93
2018-08-23T12:06:26.487Z,33.09
2018-08-23T12:08:55.506Z,33.12
2018-08-23T12:11:24.518Z,33.28
2018-08-23T12:13:53.540Z,33.29
2018-08-23T12:16:22.532Z,33.04
2018-08-23T12:18:51.559Z,33.27
2018-08-23T12:21:20.631Z,33.33
2018-08-23T12:23:50.669Z,33.33
2018-08-23T12:26:19.778Z,33.44
2018-08-23T12:28:54.022Z,33.50
2018-08-23T12:31:23.034Z,33.48
2018-08-23T12:33:52.103Z,33.47
2018-08-23T12:36:26.342Z,33.56
2018-08-23T12:39:00.739Z,33.52
2018-08-23T12:41:35.134Z,33.48
2018-08-23T12:44:04.404Z,33.16
2018-08-23T12:46:33.499Z,33.29
2018-08-23T12:49:02.586Z,33.33
2018-08-23T12:51:31.569Z,33.14
2018-08-23T12:54:00.602Z,33.27
2018-08-23T12:56:29.684Z,33.60
2018-08-23T12:58:58.663Z,33.69
2018-08-23T13:01:27.772Z,33.82
2018-08-23T13:03:56.897Z,33.75
2018-08-23T13:06:25.882Z,33.77
2018-08-23T13:08:54.883Z,33.95
2018-08-23T13:11:23.895Z,33.96
2018-08-23T13:13:52.916Z,33.74
2018-08-23T13:16:21.932Z,33.72
2018-08-23T13:18:50.959Z,33.71
2018-08-23T13:21:20.081Z,33.70
2018-08-23T13:23:49.099Z,33.99
2018-08-23T13:26:18.133Z,33.25
2018-08-23T13:28:47.127Z,32.90
2018-08-23T13:31:16.119Z,32.49
2018-08-23T13:33:45.230Z,32.19
2018-08-23T13:36:14.274Z,31.94
2018-08-23T13:38:43.323Z,31.91
2018-08-23T13:41:12.328Z,31.89
2018-08-23T13:43:41.437Z,32.09
2018-08-23T13:46:10.487Z,32.13
2018-08-23T13:48:39.511Z,31.98
2018-08-23T13:51:08.543Z,31.92
2018-08-23T13:53:37.555Z,31.93
2018-08-23T13:56:06.907Z,32.07
2018-08-23T13:58:35.920Z,32.06
2018-08-23T14:01:04.964Z,31.92
2018-08-23T14:03:34.343Z,31.75
2018-08-23T14:06:03.448Z,31.54
2018-08-23T14:08:32.432Z,31.46
2018-08-23T14:11:01.535Z,31.36
2018-08-23T14:13:30.467Z,31.25
2018-08-23T14:16:03.375Z,31.25
2018-08-23T14:18:33.481Z,31.26
2018-08-23T14:21:02.838Z,31.28
2018-08-23T14:23:31.857Z,31.51
2018-08-23T14:26:00.907Z,31.52
2018-08-23T14:28:30.120Z,31.46
2018-08-23T14:30:59.151Z,31.40
2018-08-23T14:33:28.275Z,31.65
2018-08-23T14:35:57.469Z,31.61
2018-08-23T14:38:26.574Z,31.66
2018-08-23T14:40:55.532Z,31.93
2018-08-23T14:43:24.570Z,32.36
2018-08-23T14:45:57.726Z,32.31
2018-08-23T14:48:26.752Z,32.18
2018-08-23T14:50:55.772Z,32.38
2018-08-23T14:53:25.954Z,32.29
2018-08-23T14:56:00.252Z,32.10
2018-08-23T14:58:29.619Z,31.84
2018-08-23T15:00:58.746Z,31.78
2018-08-23T15:03:27.743Z,31.61
2018-08-23T15:05:56.811Z,31.43
2018-08-23T15:08:25.905Z,31.35
2018-08-23T15:10:54.915Z,31.55
2018-08-23T15:13:24.015Z,31.96
2018-08-23T15:15:53.730Z,32.38
2018-08-23T15:18:23.191Z,32.57
2018-08-23T15:20:52.320Z,32.82
2018-08-23T15:23:21.278Z,33.03
2018-08-23T15:25:50.307Z,32.72
2018-08-23T15:28:19.427Z,33.10
2018-08-23T15:30:48.434Z,32.87
2018-08-23T15:33:17.523Z,32.83
2018-08-23T15:35:46.643Z,32.45
2018-08-23T15:38:15.681Z,32.22
2018-08-23T15:40:44.885Z,32.02
2018-08-23T15:43:13.843Z,31.89
2018-08-23T15:45:42.855Z,31.77
2018-08-23T15:48:11.870Z,31.47
2018-08-23T15:50:40.916Z,31.40
2018-08-23T15:53:09.924Z,31.36
2018-08-23T15:55:39.104Z,31.91
2018-08-23T15:58:08.188Z,31.92
2018-08-23T16:00:38.679Z,31.63
2018-08-23T16:03:08.085Z,31.53
2018-08-23T16:05:37.752Z,31.21
2018-08-23T16:08:07.088Z,31.22
2018-08-23T16:10:36.305Z,31.10
2018-08-23T16:13:05.551Z,31.02
2018-08-23T16:15:34.700Z,30.99
2018-08-23T16:18:08.911Z,30.77
2018-08-23T16:20:43.256Z,30.67
2018-08-23T16:23:12.274Z,30.59
2018-08-23T16:25:43.496Z,30.61
2018-08-23T16:28:12.808Z,30.62
2018-08-23T16:30:47.341Z,30.69
2018-08-23T16:33:16.372Z,30.78
2018-08-23T16:35:45.463Z,31.18
2018-08-23T16:38:14.468Z,31.52
2018-08-23T16:40:43.511Z,31.70
2018-08-23T16:43:12.548Z,31.81
2018-08-23T16:45:41.623Z,31.66
2018-08-23T16:48:10.798Z,31.70
2018-08-23T16:50:39.859Z,31.59
2018-08-23T16:53:08.965Z,31.53
2018-08-23T16:55:37.949Z,31.48
2018-08-23T16:58:07.018Z,31.62
2018-08-23T17:00:36.228Z,31.64
2018-08-23T17:03:05.353Z,31.39
2018-08-23T17:05:34.444Z,31.18
2018-08-23T17:08:03.554Z,30.98
2018-08-23T17:10:32.592Z,30.70
2018-08-23T17:13:01.622Z,30.44
2018-08-23T17:15:35.883Z,30.30
2018-08-23T17:18:05.198Z,30.00
2018-08-23T17:20:34.107Z,29.72
2018-08-23T17:23:03.227Z,29.53
2018-08-23T17:25:32.243Z,29.24
2018-08-23T17:28:01.451Z,29.07
2018-08-23T17:30:30.455Z,28.81
2018-08-23T17:32:59.490Z,28.52
2018-08-23T17:35:28.532Z,28.32
2018-08-23T17:37:57.588Z,28.10
2018-08-23T17:40:26.608Z,27.85
2018-08-23T17:42:55.777Z,27.58
2018-08-23T17:45:24.807Z,27.39
2018-08-23T17:47:56.815Z,27.24
2018-08-23T17:50:25.931Z,27.15
2018-08-23T17:52:54.978Z,27.06
2018-08-23T17:55:24.032Z,27.03
2018-08-23T17:57:53.226Z,27.01
2018-08-23T18:00:22.422Z,27.08
2018-08-23T18:02:51.432Z,27.26
2018-08-23T18:05:20.526Z,27.49
2018-08-23T18:07:49.548Z,27.66
2018-08-23T18:10:18.572Z,27.63
2018-08-23T18:12:47.602Z,27.67
2018-08-23T18:15:16.823Z,27.55
2018-08-23T18:17:45.929Z,27.61
2018-08-23T18:20:14.973Z,27.61
2018-08-23T18:22:43.976Z,27.58
2018-08-23T18:25:13.117Z,27.53
2018-08-23T18:27:42.108Z,27.51
2018-08-23T18:30:11.512Z,27.43
2018-08-23T18:32:40.535Z,27.52
2018-08-23T18:35:09.571Z,27.42
2018-08-23T18:37:38.719Z,27.37
2018-08-23T18:40:07.729Z,27.37
2018-08-23T18:42:36.850Z,27.58
2018-08-23T18:45:06.008Z,27.27
2018-08-23T18:47:35.028Z,25.65
2018-08-23T18:50:04.043Z,24.72
2018-08-23T18:52:33.069Z,24.13
2018-08-23T18:55:02.215Z,23.85
2018-08-23T18:57:31.327Z,21.54
2018-08-23T19:00:00.496Z,19.89
2018-08-23T19:02:29.420Z,19.27
2018-08-23T19:04:58.542Z,19.02
2018-08-23T19:07:32.920Z,19.06
2018-08-23T19:10:01.984Z,19.01
2018-08-23T19:12:31.407Z,19.02
2018-08-23T19:15:00.443Z,19.09
2018-08-23T19:17:33.027Z,19.15
2018-08-23T19:20:02.054Z,19.24
2018-08-23T19:22:31.072Z,19.31
2018-08-23T19:25:00.194Z,19.38
2018-08-23T19:27:29.158Z,19.43
2018-08-23T19:29:58.195Z,19.46
2018-08-23T19:32:27.291Z,19.55
2018-08-23T19:34:56.454Z,19.57
2018-08-23T19:37:25.483Z,19.56
2018-08-23T19:39:54.735Z,19.55
2018-08-23T19:42:23.795Z,19.55
2018-08-23T19:45:01.035Z,19.52
2018-08-23T19:47:35.495Z,19.50
2018-08-23T19:50:08.431Z,19.56
2018-08-23T19:52:37.439Z,19.55
2018-08-23T19:55:07.864Z,19.56
2018-08-23T19:57:37.029Z,19.43
2018-08-23T20:00:07.596Z,19.56
2018-08-23T20:02:36.619Z,19.51
2018-08-23T20:05:05.959Z,19.52
2018-08-23T20:07:35.499Z,19.63
2018-08-23T20:10:04.756Z,19.61
2018-08-23T20:12:33.938Z,19.60
2018-08-23T20:15:02.888Z,19.59
2018-08-23T20:17:32.660Z,19.60
2018-08-23T20:20:01.700Z,19.65
2018-08-23T20:22:30.732Z,19.65
2018-08-23T20:24:59.895Z,19.63
2018-08-23T20:27:28.871Z,19.65
2018-08-23T20:29:57.944Z,19.64
2018-08-23T20:32:26.989Z,19.65
2018-08-23T20:34:56.017Z,19.63
2018-08-23T20:37:25.071Z,19.67
2018-08-23T20:39:54.170Z,19.68
2018-08-23T20:42:23.168Z,19.63
2018-08-23T20:44:52.209Z,19.68
2018-08-23T20:47:21.297Z,19.68
2018-08-23T20:49:50.353Z,19.69
2018-08-23T20:52:19.488Z,19.72
2018-08-23T20:54:48.707Z,19.71
2018-08-23T20:57:17.867Z,19.63
2018-08-23T20:59:46.903Z,19.61
2018-08-23T21:02:17.453Z,19.60
2018-08-23T21:04:46.504Z,19.65
2018-08-23T21:07:15.537Z,19.68
2018-08-23T21:09:44.604Z,19.83
2018-08-23T21:12:13.824Z,19.81
2018-08-23T21:14:42.942Z,19.66
2018-08-23T21:17:11.959Z,19.64
2018-08-23T21:19:40.991Z,19.62
2018-08-23T21:22:10.028Z,19.61
2018-08-23T21:24:39.055Z,19.71
2018-08-23T21:27:08.131Z,19.75
2018-08-23T21:29:37.291Z,19.61
2018-08-23T21:32:06.463Z,19.57
2018-08-23T21:34:35.486Z,19.53
2018-08-23T21:37:04.538Z,19.59
2018-08-23T21:39:33.603Z,19.58
2018-08-23T21:42:02.691Z,19.53
2018-08-23T21:44:31.740Z,19.56
2018-08-23T21:47:00.759Z,19.59
2018-08-23T21:49:29.775Z,19.55
2018-08-23T21:52:00.447Z,19.57
2018-08-23T21:54:29.460Z,19.58
2018-08-23T21:56:58.475Z,19.59
2018-08-23T21:59:27.487Z,19.55
2018-08-23T22:02:01.831Z,19.53
2018-08-23T22:04:30.836Z,19.47
2018-08-23T22:06:59.855Z,19.47
2018-08-23T22:09:28.882Z,19.43
2018-08-23T22:11:59.243Z,19.46
2018-08-23T22:14:28.258Z,19.44
2018-08-23T22:16:57.283Z,19.51
2018-08-23T22:19:26.448Z,19.39
2018-08-23T22:21:56.612Z,19.38
2018-08-23T22:24:25.632Z,19.33
2018-08-23T22:26:54.672Z,19.32
2018-08-23T22:29:23.667Z,19.34
2018-08-23T22:31:54.118Z,19.37
2018-08-23T22:34:23.135Z,19.31
2018-08-23T22:36:52.385Z,19.30
2018-08-23T22:39:21.433Z,19.25
2018-08-23T22:41:51.548Z,19.30
2018-08-23T22:44:20.568Z,19.24
2018-08-23T22:46:49.587Z,19.21
2018-08-23T22:49:18.611Z,19.09
2018-08-23T22:51:49.199Z,19.10
2018-08-23T22:54:18.254Z,19.09
2018-08-23T22:56:47.287Z,19.06
2018-08-23T22:59:16.320Z,19.00
2018-08-23T23:01:46.838Z,18.96
2018-08-23T23:04:21.474Z,18.96
2018-08-23T23:06:50.503Z,18.95
2018-08-23T23:09:19.511Z,18.87
2018-08-23T23:11:50.045Z,18.93
2018-08-23T23:14:19.057Z,18.81
2018-08-23T23:16:48.075Z,18.87
2018-08-23T23:19:17.103Z,18.83
2018-08-23T23:21:46.128Z,18.92
2018-08-23T23:24:20.603Z,19.00
2018-08-23T23:26:51.281Z,19.01
2018-08-23T23:29:20.300Z,18.96
2018-08-23T23:31:51.042Z,18.88
2018-08-23T23:34:20.063Z,18.94
2018-08-23T23:36:49.100Z,18.91
2018-08-23T23:39:18.325Z,18.88
2018-08-23T23:41:48.578Z,18.91
2018-08-23T23:44:17.778Z,19.00
2018-08-23T23:46:46.804Z,19.03
2018-08-23T23:49:15.947Z,19.01
2018-08-23T23:51:46.971Z,19.02
2018-08-23T23:54:16.295Z,19.09
2018-08-23T23:56:45.388Z,19.12
2018-08-23T23:59:14.343Z,19.10
